createdAt,value
2022-08-17T00:02:25.582Z,35.35
2022-08-17T00:04:54.648Z,36.72
2022-08-17T00:07:21.455Z,34.50
2022-08-17T00:09:48.139Z,38.40
2022-08-17T00:12:42.845Z,35.00
2022-08-17T00:15:01.567Z,32.33
2022-08-17T00:17:28.167Z,32.13
2022-08-17T00:19:54.729Z,31.75
2022-08-17T00:22:34.586Z,35.95
2022-08-17T00:25:07.393Z,34.60
2022-08-17T00:27:34.615Z,35.58
2022-08-17T00:30:01.574Z,34.88
2022-08-17T00:33:13.569Z,33.90
2022-08-17T00:35:18.423Z,34.08
2022-08-17T00:37:45.124Z,35.25
2022-08-17T00:40:14.691Z,33.45
2022-08-17T00:42:42.850Z,29.27
2022-08-17T00:45:13.091Z,32.95
2022-08-17T00:47:40.276Z,30.50
2022-08-17T00:50:10.534Z,31.23
2022-08-17T00:52:43.791Z,32.95
2022-08-17T00:55:10.624Z,33.10
2022-08-17T00:57:43.216Z,30.70
2022-08-17T01:00:15.871Z,30.83
2022-08-17T01:02:45.350Z,33.85
2022-08-17T01:05:19.413Z,33.58
2022-08-17T01:07:50.845Z,32.33
2022-08-17T01:11:00.476Z,31.38
2022-08-17T01:13:11.278Z,30.60
2022-08-17T01:15:46.421Z,30.33
2022-08-17T01:18:14.356Z,30.63
2022-08-17T01:20:48.175Z,29.70
2022-08-17T01:23:21.017Z,27.27
2022-08-17T01:25:54.294Z,26.05
2022-08-17T01:28:52.284Z,28.02
2022-08-17T01:31:08.889Z,25.67
2022-08-17T01:33:36.439Z,25.63
2022-08-17T01:36:04.764Z,24.60
2022-08-17T01:38:31.970Z,25.80
2022-08-17T01:41:02.891Z,24.20
2022-08-17T01:43:43.412Z,24.63
2022-08-17T01:46:16.218Z,27.60
2022-08-17T01:48:43.649Z,24.83
2022-08-17T01:51:10.296Z,24.08
2022-08-17T01:53:42.383Z,26.20
2022-08-17T01:56:12.381Z,26.77
2022-08-17T01:58:40.397Z,27.33
2022-08-17T02:01:10.123Z,25.83
2022-08-17T02:03:38.124Z,31.63
2022-08-17T02:06:06.578Z,28.08
2022-08-17T02:09:01.672Z,31.52
2022-08-17T02:11:30.237Z,28.13
2022-08-17T02:14:02.989Z,29.98
2022-08-17T02:16:37.931Z,23.70
2022-08-17T02:19:12.441Z,25.92
2022-08-17T02:21:40.721Z,28.90
2022-08-17T02:24:10.987Z,25.25
2022-08-17T02:26:37.650Z,23.02
2022-08-17T02:29:04.322Z,25.80
2022-08-17T02:31:31.171Z,24.27
2022-08-17T02:34:03.681Z,23.77
2022-08-17T02:36:33.089Z,25.08
2022-08-17T02:39:01.610Z,22.52
2022-08-17T02:41:28.300Z,22.65
2022-08-17T02:43:54.912Z,22.65
2022-08-17T02:46:22.682Z,24.58
2022-08-17T02:48:49.307Z,24.35
2022-08-17T02:51:15.940Z,21.17
2022-08-17T02:53:42.492Z,21.92
2022-08-17T02:56:09.260Z,23.15
2022-08-17T02:58:38.242Z,22.63
2022-08-17T03:01:07.465Z,23.45
2022-08-17T03:03:35.800Z,23.88
2022-08-17T03:06:03.783Z,21.52
2022-08-17T03:08:30.624Z,22.92
2022-08-17T03:10:57.365Z,22.75
2022-08-17T03:13:24.207Z,24.77
2022-08-17T03:15:51.252Z,24.02
2022-08-17T03:18:24.854Z,23.98
2022-08-17T03:20:59.113Z,24.80
2022-08-17T03:23:27.333Z,25.70
2022-08-17T03:25:55.296Z,22.65
2022-08-17T03:28:23.424Z,22.23
2022-08-17T03:30:51.241Z,23.75
2022-08-17T03:33:19.135Z,23.13
2022-08-17T03:35:46.171Z,21.88
2022-08-17T03:38:15.150Z,20.42
2022-08-17T03:40:56.729Z,19.38
2022-08-17T03:43:30.874Z,20.20
2022-08-17T03:46:27.724Z,19.02
2022-08-17T03:49:14.824Z,19.42
2022-08-17T03:51:59.934Z,19.27
2022-08-17T03:54:45.096Z,19.77
2022-08-17T03:57:12.564Z,21.20
2022-08-17T03:59:39.783Z,22.38
2022-08-17T04:02:11.494Z,17.73
2022-08-17T04:04:38.921Z,19.48
2022-08-17T04:07:06.505Z,18.35
2022-08-17T04:09:33.370Z,17.83
2022-08-17T04:12:02.272Z,18.30
2022-08-17T04:14:47.760Z,16.13
2022-08-17T04:17:22.587Z,17.98
2022-08-17T04:19:49.112Z,16.30
2022-08-17T04:22:32.537Z,16.95
2022-08-17T04:25:19.845Z,16.88
2022-08-17T04:27:48.399Z,16.80
2022-08-17T04:30:15.892Z,17.23
2022-08-17T04:33:10.605Z,16.98
2022-08-17T04:35:50.257Z,19.83
2022-08-17T04:38:20.233Z,18.75
2022-08-17T04:41:06.004Z,20.45
2022-08-17T04:43:34.348Z,21.67
2022-08-17T04:46:04.996Z,24.63
2022-08-17T04:48:40.871Z,27.55
2022-08-17T04:51:21.134Z,28.52
2022-08-17T04:53:54.395Z,24.27
2022-08-17T04:56:23.699Z,28.77
2022-08-17T04:58:52.247Z,28.50
2022-08-17T05:01:23.839Z,26.40
2022-08-17T05:03:52.826Z,26.88
2022-08-17T05:06:19.923Z,24.30
2022-08-17T05:08:46.485Z,27.83
2022-08-17T05:11:12.984Z,24.98
2022-08-17T05:13:39.535Z,27.67
2022-08-17T05:16:09.210Z,23.85
2022-08-17T05:18:38.818Z,23.92
2022-08-17T05:21:06.852Z,24.08
2022-08-17T05:23:41.769Z,23.00
2022-08-17T05:26:25.915Z,26.38
2022-08-17T05:28:59.489Z,18.48
2022-08-17T05:31:27.809Z,22.65
2022-08-17T05:33:54.418Z,17.17
2022-08-17T05:36:42.950Z,17.48
2022-08-17T05:39:08.349Z,17.70
2022-08-17T05:41:42.521Z,16.85
2022-08-17T05:44:09.011Z,16.15
2022-08-17T05:46:54.402Z,15.13
2022-08-17T05:49:27.548Z,15.60
2022-08-17T05:52:13.744Z,13.63
2022-08-17T05:55:04.328Z,12.02
2022-08-17T05:57:47.659Z,11.90
2022-08-17T06:00:30.080Z,13.65
2022-08-17T06:06:00.154Z,11.68
2022-08-17T06:08:38.338Z,9.48
2022-08-17T06:11:28.535Z,9.25
2022-08-17T06:14:24.355Z,10.93
2022-08-17T06:16:59.145Z,10.27
2022-08-17T06:19:51.265Z,9.82
2022-08-17T06:22:21.957Z,9.63
2022-08-17T06:25:01.056Z,10.15
2022-08-17T06:28:03.050Z,12.07
2022-08-17T06:30:41.411Z,11.50
2022-08-17T06:33:27.517Z,11.43
2022-08-17T06:36:09.589Z,11.88
2022-08-17T06:39:06.673Z,13.27
2022-08-17T06:42:05.725Z,10.65
2022-08-17T06:44:51.295Z,13.68
2022-08-17T06:47:36.232Z,12.40
2022-08-17T06:50:14.524Z,14.65
2022-08-17T06:52:57.695Z,13.88
2022-08-17T06:55:38.166Z,14.90
2022-08-17T06:58:16.366Z,14.90
2022-08-17T07:00:47.604Z,17.15
2022-08-17T07:03:20.813Z,13.60
2022-08-17T07:05:57.764Z,13.82
2022-08-17T07:08:35.023Z,14.07
2022-08-17T07:11:14.427Z,15.70
2022-08-17T07:13:52.236Z,17.48
2022-08-17T07:16:33.720Z,15.48
2022-08-17T07:19:00.368Z,17.90
2022-08-17T07:21:52.247Z,13.48
2022-08-17T07:24:33.257Z,15.38
2022-08-17T07:27:31.468Z,15.27
2022-08-17T07:30:10.350Z,15.70
2022-08-17T07:32:53.960Z,15.43
2022-08-17T07:35:41.455Z,13.25
2022-08-17T07:38:29.228Z,16.52
2022-08-17T07:41:03.709Z,17.38
2022-08-17T07:43:34.716Z,16.08
2022-08-17T07:46:30.181Z,17.40
2022-08-17T07:49:16.978Z,16.65
2022-08-17T07:51:43.729Z,15.70
2022-08-17T07:54:16.562Z,19.20
2022-08-17T07:56:50.757Z,16.70
2022-08-17T07:59:25.380Z,18.98
2022-08-17T08:01:56.235Z,20.27
2022-08-17T08:05:00.207Z,16.10
2022-08-17T08:07:35.552Z,17.85
2022-08-17T08:10:22.326Z,20.27
2022-08-17T08:12:55.708Z,20.50
2022-08-17T08:15:35.304Z,18.20
2022-08-17T08:18:05.334Z,18.73
2022-08-17T08:20:54.063Z,17.55
2022-08-17T08:23:44.841Z,16.30
2022-08-17T08:26:32.607Z,15.52
2022-08-17T08:29:08.288Z,15.32
2022-08-17T08:32:07.549Z,19.85
2022-08-17T08:35:01.022Z,13.52
2022-08-17T08:38:00.000Z,13.80
2022-08-17T08:40:38.708Z,17.17
2022-08-17T08:43:31.439Z,15.02
2022-08-17T08:46:15.546Z,11.02
2022-08-17T08:49:17.679Z,11.93
2022-08-17T08:51:55.271Z,11.48
2022-08-17T08:54:31.337Z,12.82
2022-08-17T08:57:24.488Z,11.52
2022-08-17T09:00:06.694Z,11.48
2022-08-17T09:02:45.489Z,10.48
2022-08-17T09:05:39.195Z,10.80
2022-08-17T09:08:30.132Z,12.50
2022-08-17T09:11:28.303Z,11.25
2022-08-17T09:13:57.302Z,11.07
2022-08-17T09:16:48.230Z,11.35
2022-08-17T09:19:29.952Z,9.55
2022-08-17T09:22:17.481Z,11.90
2022-08-17T09:24:50.081Z,10.23
2022-08-17T09:27:30.442Z,9.73
2022-08-17T09:30:04.844Z,10.40
2022-08-17T09:32:39.765Z,12.50
2022-08-17T09:35:14.958Z,12.35
2022-08-17T09:38:05.246Z,12.77
2022-08-17T09:40:52.071Z,14.32
2022-08-17T09:43:46.583Z,14.43
2022-08-17T09:46:16.165Z,17.10
2022-08-17T09:48:50.267Z,15.68
2022-08-17T09:51:48.557Z,16.58
2022-08-17T09:54:39.926Z,16.30
2022-08-17T09:57:29.294Z,15.98
2022-08-17T10:00:13.084Z,17.25
2022-08-17T10:03:16.381Z,15.10
2022-08-17T10:06:10.725Z,16.02
2022-08-17T10:08:47.855Z,16.27
2022-08-17T10:11:50.379Z,16.20
2022-08-17T10:14:37.627Z,16.23
2022-08-17T10:17:32.575Z,16.38
2022-08-17T10:20:10.608Z,15.23
2022-08-17T10:23:03.151Z,15.10
2022-08-17T10:25:55.127Z,13.00
2022-08-17T10:28:30.504Z,15.13
2022-08-17T10:31:33.292Z,16.92
2022-08-17T10:34:28.091Z,13.50
2022-08-17T10:37:16.773Z,14.35
2022-08-17T10:39:52.007Z,14.40
2022-08-17T10:42:30.369Z,15.27
2022-08-17T10:45:22.705Z,14.38
2022-08-17T10:48:06.379Z,13.63
2022-08-17T10:50:46.045Z,13.70
2022-08-17T10:53:32.412Z,14.63
2022-08-17T10:56:16.192Z,15.85
2022-08-17T10:59:01.326Z,15.45
2022-08-17T11:01:39.918Z,14.30
2022-08-17T11:04:18.515Z,16.15
2022-08-17T11:07:02.155Z,15.18
2022-08-17T11:09:34.905Z,17.80
2022-08-17T11:12:40.229Z,16.60
2022-08-17T11:15:41.206Z,16.08
2022-08-17T11:18:21.216Z,16.15
2022-08-17T11:20:57.136Z,16.75
2022-08-17T11:23:42.243Z,17.27
2022-08-17T11:26:26.038Z,15.25
2022-08-17T11:29:01.388Z,17.60
2022-08-17T11:31:38.403Z,15.95
2022-08-17T11:34:14.061Z,16.30
2022-08-17T11:36:56.067Z,17.92
2022-08-17T11:39:25.473Z,17.80
2022-08-17T11:42:05.809Z,17.73
2022-08-17T11:44:53.704Z,17.85
2022-08-17T11:48:27.301Z,21.45
2022-08-17T11:51:32.098Z,21.35
2022-08-17T11:54:31.066Z,18.70
2022-08-17T11:56:51.995Z,20.63
2022-08-17T11:59:30.628Z,19.17
2022-08-17T12:01:57.221Z,21.88
2022-08-17T12:04:34.999Z,21.40
2022-08-17T12:07:08.132Z,23.60
2022-08-17T12:09:41.446Z,23.75
2022-08-17T12:12:16.646Z,23.60
2022-08-17T12:15:12.566Z,25.08
2022-08-17T12:17:52.426Z,26.52
2022-08-17T12:20:28.976Z,27.58
2022-08-17T12:23:17.300Z,26.08
2022-08-17T12:26:17.447Z,30.95
2022-08-17T12:28:46.677Z,27.70
2022-08-17T12:31:20.369Z,28.55
2022-08-17T12:33:48.062Z,28.92
2022-08-17T12:36:19.036Z,29.27
2022-08-17T12:39:14.058Z,28.55
2022-08-17T12:41:47.593Z,28.67
2022-08-17T12:44:23.213Z,32.88
2022-08-17T12:47:19.339Z,29.85
2022-08-17T12:49:51.335Z,29.70
2022-08-17T12:52:26.580Z,29.83
2022-08-17T12:55:06.951Z,31.33
2022-08-17T12:57:43.074Z,30.75
2022-08-17T13:00:19.909Z,33.03
2022-08-17T13:02:49.835Z,30.25
2022-08-17T13:05:37.909Z,27.15
2022-08-17T13:08:16.794Z,28.58
2022-08-17T13:10:44.033Z,29.73
2022-08-17T13:13:24.687Z,29.77
2022-08-17T13:15:54.657Z,28.60
2022-08-17T13:18:39.067Z,28.83
2022-08-17T13:21:23.671Z,32.70
2022-08-17T13:24:03.254Z,31.85
2022-08-17T13:27:08.880Z,30.80
2022-08-17T13:29:39.951Z,33.17
2022-08-17T13:32:12.917Z,31.77
2022-08-17T13:34:48.970Z,30.65
2022-08-17T13:37:34.958Z,31.83
2022-08-17T13:40:10.665Z,32.10
2022-08-17T13:42:51.879Z,31.65
2022-08-17T13:45:36.753Z,31.20
2022-08-17T13:48:29.222Z,32.67
2022-08-17T13:50:55.546Z,33.28
2022-08-17T13:53:23.741Z,29.02
2022-08-17T13:55:58.280Z,31.23
2022-08-17T13:58:35.866Z,34.25
2022-08-17T14:01:28.981Z,32.58
2022-08-17T14:03:56.685Z,28.52
2022-08-17T14:06:52.264Z,36.17
2022-08-17T14:09:25.863Z,32.42
2022-08-17T14:11:54.203Z,30.70
2022-08-17T14:14:23.037Z,30.90
2022-08-17T14:16:51.369Z,28.45
2022-08-17T14:19:18.130Z,31.02
2022-08-17T14:21:46.521Z,30.13
2022-08-17T14:24:23.041Z,32.00
2022-08-17T14:26:52.237Z,27.80
2022-08-17T14:29:20.209Z,28.95
2022-08-17T14:31:48.485Z,31.13
2022-08-17T14:34:21.227Z,28.95
2022-08-17T14:36:48.627Z,30.80
2022-08-17T14:39:16.297Z,29.00
2022-08-17T14:41:42.784Z,30.20
2022-08-17T14:44:12.571Z,31.58
2022-08-17T14:46:43.246Z,30.58
2022-08-17T14:49:11.904Z,30.85
2022-08-17T14:51:43.598Z,27.48
2022-08-17T14:54:11.791Z,28.67
2022-08-17T14:57:14.827Z,30.80
2022-08-17T14:59:45.100Z,27.25
2022-08-17T15:02:17.414Z,26.90
2022-08-17T15:04:47.595Z,26.75
2022-08-17T15:07:15.385Z,28.45
2022-08-17T15:09:41.770Z,27.75
2022-08-17T15:12:08.799Z,27.25
2022-08-17T15:14:35.864Z,29.17
2022-08-17T15:17:03.608Z,28.23
2022-08-17T15:19:30.040Z,32.72
2022-08-17T15:21:56.457Z,27.27
2022-08-17T15:24:22.879Z,29.58
2022-08-17T15:26:51.368Z,29.60
2022-08-17T15:29:17.854Z,30.90
2022-08-17T15:31:44.286Z,26.67
2022-08-17T15:34:10.701Z,27.92
2022-08-17T15:36:37.482Z,29.65
2022-08-17T15:39:07.120Z,27.55
2022-08-17T15:41:33.633Z,27.65
2022-08-17T15:44:00.393Z,27.20
2022-08-17T15:46:28.410Z,27.60
2022-08-17T15:48:59.903Z,26.35
2022-08-17T15:51:32.370Z,27.40
2022-08-17T15:54:22.871Z,24.58
2022-08-17T15:56:50.763Z,26.42
2022-08-17T15:59:17.216Z,25.85
2022-08-17T16:03:12.972Z,23.30
2022-08-17T16:04:31.889Z,22.58
2022-08-17T16:07:00.116Z,24.48
2022-08-17T16:09:27.490Z,24.13
2022-08-17T16:11:56.088Z,22.70
2022-08-17T16:14:25.436Z,21.63
2022-08-17T16:17:00.575Z,20.45
2022-08-17T16:19:26.993Z,19.45
2022-08-17T16:21:53.470Z,21.27
2022-08-17T16:24:19.882Z,17.10
2022-08-17T16:26:46.443Z,19.13
2022-08-17T16:29:13.353Z,20.60
2022-08-17T16:31:41.733Z,18.77
2022-08-17T16:34:17.305Z,20.20
2022-08-17T16:36:56.179Z,20.75
2022-08-17T16:39:27.228Z,19.50
2022-08-17T16:41:54.190Z,20.45
2022-08-17T16:44:21.956Z,20.52
2022-08-17T16:46:48.890Z,20.60
2022-08-17T16:49:36.217Z,22.42
2022-08-17T16:52:05.945Z,23.33
2022-08-17T16:54:32.744Z,21.50
2022-08-17T16:56:59.353Z,20.80
2022-08-17T16:59:30.438Z,22.70
2022-08-17T17:02:11.345Z,21.30
2022-08-17T17:04:45.791Z,21.73
2022-08-17T17:07:33.960Z,22.67
2022-08-17T17:10:28.062Z,26.30
2022-08-17T17:13:03.866Z,24.00
2022-08-17T17:15:41.944Z,25.17
2022-08-17T17:18:12.646Z,25.20
2022-08-17T17:20:47.859Z,24.98
2022-08-17T17:23:36.026Z,24.05
2022-08-17T17:26:28.416Z,28.45
2022-08-17T17:29:47.416Z,24.55
2022-08-17T17:32:39.102Z,27.05
2022-08-17T17:35:23.996Z,25.55
2022-08-17T17:37:52.410Z,29.67
2022-08-17T17:40:28.354Z,28.15
2022-08-17T17:43:14.187Z,25.48
2022-08-17T17:45:55.913Z,27.92
2022-08-17T17:48:23.645Z,28.98
2022-08-17T17:51:12.331Z,29.70
2022-08-17T17:54:04.515Z,30.67
2022-08-17T17:56:44.518Z,34.88
2022-08-17T17:59:24.173Z,29.20
2022-08-17T18:02:38.873Z,29.83
2022-08-17T18:05:16.524Z,30.58
2022-08-17T18:07:52.486Z,29.73
2022-08-17T18:10:29.453Z,30.13
2022-08-17T18:13:17.307Z,29.00
2022-08-17T18:15:51.087Z,31.20
2022-08-17T18:18:17.509Z,29.65
2022-08-17T18:20:53.969Z,30.58
2022-08-17T18:23:27.595Z,31.05
2022-08-17T18:25:56.206Z,28.13
2022-08-17T18:28:32.987Z,30.63
2022-08-17T18:31:09.753Z,28.45
2022-08-17T18:33:38.224Z,32.38
2022-08-17T18:36:06.256Z,35.28
2022-08-17T18:38:39.300Z,32.72
2022-08-17T18:41:20.673Z,37.42
2022-08-17T18:44:02.748Z,43.75
2022-08-17T18:46:37.764Z,50.38
2022-08-17T18:49:08.536Z,39.95
2022-08-17T18:51:42.409Z,51.95
2022-08-17T18:54:17.564Z,46.33
2022-08-17T18:56:51.181Z,50.97
2022-08-17T18:59:41.368Z,44.33
2022-08-17T19:02:28.379Z,49.03
2022-08-17T19:05:28.552Z,51.05
2022-08-17T19:08:18.796Z,48.00
2022-08-17T19:10:48.670Z,47.40
2022-08-17T19:13:24.053Z,46.05
2022-08-17T19:19:06.184Z,48.95
2022-08-17T19:21:38.415Z,43.53
2022-08-17T19:25:21.809Z,52.30
2022-08-17T19:27:58.152Z,48.88
2022-08-17T19:34:13.393Z,40.83
2022-08-17T20:28:17.249Z,53.35
2022-08-17T20:43:39.637Z,79.32
2022-08-17T20:50:40.365Z,55.63
2022-08-17T20:57:37.522Z,45.95
2022-08-17T21:00:56.218Z,53.94
2022-08-17T21:03:50.631Z,56.77
2022-08-17T21:06:22.453Z,63.40
2022-08-17T21:09:12.590Z,49.54
2022-08-17T21:13:15.507Z,44.17
2022-08-17T21:23:46.896Z,44.27
2022-08-17T21:26:31.653Z,36.95
2022-08-17T21:30:20.586Z,38.10
2022-08-17T21:33:10.051Z,33.80
2022-08-17T21:35:51.822Z,33.70
2022-08-17T21:38:57.441Z,41.07
2022-08-17T21:44:47.174Z,45.00
2022-08-17T23:30:41.026Z,25.35
